sensor_id;sensor_type;location;lat;lon;timestamp;P1;durP1;ratioP1;P2;durP2;ratioP2
56469;SDS011;42374;51.464;-2.590;2022-07-22T00:00:59;6.90;;;2.00;;
56469;SDS011;42374;51.464;-2.590;2022-07-22T00:03:25;8.75;;;2.03;;
56469;SDS011;42374;51.464;-2.590;2022-07-22T00:05:52;4.88;;;1.67;;
56469;SDS011;42374;51.464;-2.590;2022-07-22T00:08:18;6.45;;;2.00;;
56469;SDS011;42374;51.464;-2.590;2022-07-22T00:10:44;4.10;;;1.33;;
56469;SDS011;42374;51.464;-2.590;2022-07-22T00:13:10;3.90;;;1.63;;
56469;SDS011;42374;51.464;-2.590;2022-07-22T00:15:37;5.35;;;1.45;;
56469;SDS011;42374;51.464;-2.590;2022-07-22T00:18:03;6.47;;;1.70;;
56469;SDS011;42374;51.464;-2.590;2022-07-22T00:20:30;4.90;;;1.58;;
56469;SDS011;42374;51.464;-2.590;2022-07-22T00:22:56;11.52;;;2.63;;
56469;SDS011;42374;51.464;-2.590;2022-07-22T00:25:23;6.20;;;1.67;;
56469;SDS011;42374;51.464;-2.590;2022-07-22T00:27:49;9.82;;;2.03;;
56469;SDS011;42374;51.464;-2.590;2022-07-22T00:30:15;5.15;;;1.80;;
56469;SDS011;42374;51.464;-2.590;2022-07-22T00:32:41;11.95;;;1.95;;
56469;SDS011;42374;51.464;-2.590;2022-07-22T00:35:07;3.00;;;1.40;;
56469;SDS011;42374;51.464;-2.590;2022-07-22T00:37:34;6.85;;;1.50;;
56469;SDS011;42374;51.464;-2.590;2022-07-22T00:40:00;6.68;;;1.55;;
56469;SDS011;42374;51.464;-2.590;2022-07-22T00:42:26;7.00;;;1.85;;
56469;SDS011;42374;51.464;-2.590;2022-07-22T00:44:52;10.00;;;1.75;;
56469;SDS011;42374;51.464;-2.590;2022-07-22T00:47:18;11.30;;;2.25;;
56469;SDS011;42374;51.464;-2.590;2022-07-22T00:49:44;6.50;;;1.60;;
56469;SDS011;42374;51.464;-2.590;2022-07-22T00:52:10;7.60;;;1.83;;
56469;SDS011;42374;51.464;-2.590;2022-07-22T00:54:36;12.52;;;7.03;;
56469;SDS011;42374;51.464;-2.590;2022-07-22T00:57:03;6.20;;;1.70;;
56469;SDS011;42374;51.464;-2.590;2022-07-22T00:59:29;5.93;;;2.65;;
56469;SDS011;42374;51.464;-2.590;2022-07-22T01:01:55;10.02;;;2.03;;
56469;SDS011;42374;51.464;-2.590;2022-07-22T01:04:22;7.85;;;1.90;;
56469;SDS011;42374;51.464;-2.590;2022-07-22T01:06:48;8.30;;;2.65;;
56469;SDS011;42374;51.464;-2.590;2022-07-22T01:09:14;4.68;;;1.75;;
56469;SDS011;42374;51.464;-2.590;2022-07-22T01:11:40;3.75;;;1.73;;
56469;SDS011;42374;51.464;-2.590;2022-07-22T01:14:07;6.65;;;2.20;;
56469;SDS011;42374;51.464;-2.590;2022-07-22T01:16:34;7.00;;;2.00;;
56469;SDS011;42374;51.464;-2.590;2022-07-22T01:19:01;8.63;;;2.22;;
56469;SDS011;42374;51.464;-2.590;2022-07-22T01:21:27;7.40;;;2.22;;
56469;SDS011;42374;51.464;-2.590;2022-07-22T01:23:53;9.38;;;2.20;;
56469;SDS011;42374;51.464;-2.590;2022-07-22T01:26:19;8.60;;;3.20;;
56469;SDS011;42374;51.464;-2.590;2022-07-22T01:28:45;9.05;;;3.20;;
56469;SDS011;42374;51.464;-2.590;2022-07-22T01:31:11;9.18;;;3.78;;
56469;SDS011;42374;51.464;-2.590;2022-07-22T01:33:37;7.05;;;4.63;;
56469;SDS011;42374;51.464;-2.590;2022-07-22T01:36:04;11.77;;;4.65;;
56469;SDS011;42374;51.464;-2.590;2022-07-22T01:38:30;5.25;;;3.42;;
56469;SDS011;42374;51.464;-2.590;2022-07-22T01:40:56;7.25;;;4.50;;
56469;SDS011;42374;51.464;-2.590;2022-07-22T01:43:22;6.10;;;3.78;;
56469;SDS011;42374;51.464;-2.590;2022-07-22T01:45:50;7.55;;;4.22;;
56469;SDS011;42374;51.464;-2.590;2022-07-22T01:48:17;8.55;;;3.58;;
56469;SDS011;42374;51.464;-2.590;2022-07-22T01:50:43;7.55;;;4.55;;
56469;SDS011;42374;51.464;-2.590;2022-07-22T01:53:09;7.47;;;3.85;;
56469;SDS011;42374;51.464;-2.590;2022-07-22T01:55:35;11.32;;;4.32;;
56469;SDS011;42374;51.464;-2.590;2022-07-22T01:58:02;7.22;;;4.22;;
56469;SDS011;42374;51.464;-2.590;2022-07-22T02:00:29;7.25;;;3.90;;
56469;SDS011;42374;51.464;-2.590;2022-07-22T02:02:55;7.03;;;3.83;;
56469;SDS011;42374;51.464;-2.590;2022-07-22T02:05:21;8.43;;;4.47;;
56469;SDS011;42374;51.464;-2.590;2022-07-22T02:07:47;8.77;;;3.67;;
56469;SDS011;42374;51.464;-2.590;2022-07-22T02:10:13;7.90;;;2.92;;
56469;SDS011;42374;51.464;-2.590;2022-07-22T02:12:39;7.72;;;3.42;;
56469;SDS011;42374;51.464;-2.590;2022-07-22T02:15:07;8.20;;;3.58;;
56469;SDS011;42374;51.464;-2.590;2022-07-22T02:17:34;10.40;;;5.47;;
56469;SDS011;42374;51.464;-2.590;2022-07-22T02:20:00;10.25;;;4.20;;
56469;SDS011;42374;51.464;-2.590;2022-07-22T02:22:27;8.27;;;4.35;;
56469;SDS011;42374;51.464;-2.590;2022-07-22T02:24:53;9.13;;;3.80;;
56469;SDS011;42374;51.464;-2.590;2022-07-22T02:27:19;9.30;;;3.40;;
56469;SDS011;42374;51.464;-2.590;2022-07-22T02:29:45;7.43;;;3.80;;
56469;SDS011;42374;51.464;-2.590;2022-07-22T02:32:11;8.10;;;3.33;;
56469;SDS011;42374;51.464;-2.590;2022-07-22T02:34:37;9.70;;;3.72;;
56469;SDS011;42374;51.464;-2.590;2022-07-22T02:37:03;7.70;;;3.60;;
56469;SDS011;42374;51.464;-2.590;2022-07-22T02:39:29;7.97;;;3.53;;
56469;SDS011;42374;51.464;-2.590;2022-07-22T02:41:55;11.80;;;4.57;;
56469;SDS011;42374;51.464;-2.590;2022-07-22T02:44:22;5.65;;;2.85;;
56469;SDS011;42374;51.464;-2.590;2022-07-22T02:46:48;5.57;;;3.22;;
56469;SDS011;42374;51.464;-2.590;2022-07-22T02:49:14;6.57;;;3.15;;
56469;SDS011;42374;51.464;-2.590;2022-07-22T02:51:40;6.68;;;2.67;;
56469;SDS011;42374;51.464;-2.590;2022-07-22T02:54:06;5.28;;;2.92;;
56469;SDS011;42374;51.464;-2.590;2022-07-22T02:56:33;7.30;;;2.53;;
56469;SDS011;42374;51.464;-2.590;2022-07-22T02:58:59;7.32;;;3.25;;
56469;SDS011;42374;51.464;-2.590;2022-07-22T03:01:25;5.60;;;2.35;;
56469;SDS011;42374;51.464;-2.590;2022-07-22T03:03:51;5.88;;;2.72;;
56469;SDS011;42374;51.464;-2.590;2022-07-22T03:06:17;10.27;;;3.15;;
56469;SDS011;42374;51.464;-2.590;2022-07-22T03:08:43;9.32;;;3.10;;
56469;SDS011;42374;51.464;-2.590;2022-07-22T03:11:09;8.00;;;3.17;;
56469;SDS011;42374;51.464;-2.590;2022-07-22T03:13:35;9.10;;;2.83;;
56469;SDS011;42374;51.464;-2.590;2022-07-22T03:16:01;8.95;;;2.95;;
56469;SDS011;42374;51.464;-2.590;2022-07-22T03:18:27;9.45;;;2.83;;
56469;SDS011;42374;51.464;-2.590;2022-07-22T03:20:53;6.78;;;2.83;;
56469;SDS011;42374;51.464;-2.590;2022-07-22T03:23:19;8.88;;;2.60;;
56469;SDS011;42374;51.464;-2.590;2022-07-22T03:25:46;12.63;;;2.63;;
56469;SDS011;42374;51.464;-2.590;2022-07-22T03:28:12;9.70;;;2.67;;
56469;SDS011;42374;51.464;-2.590;2022-07-22T03:30:38;6.97;;;2.35;;
56469;SDS011;42374;51.464;-2.590;2022-07-22T03:33:04;6.10;;;2.55;;
56469;SDS011;42374;51.464;-2.590;2022-07-22T03:35:31;6.25;;;2.45;;
56469;SDS011;42374;51.464;-2.590;2022-07-22T03:37:57;7.93;;;3.25;;
56469;SDS011;42374;51.464;-2.590;2022-07-22T03:40:23;6.20;;;3.03;;
56469;SDS011;42374;51.464;-2.590;2022-07-22T03:42:49;4.85;;;2.67;;
56469;SDS011;42374;51.464;-2.590;2022-07-22T03:45:15;7.43;;;2.65;;
56469;SDS011;42374;51.464;-2.590;2022-07-22T03:47:41;9.95;;;3.38;;
56469;SDS011;42374;51.464;-2.590;2022-07-22T03:50:07;8.80;;;3.20;;
56469;SDS011;42374;51.464;-2.590;2022-07-22T03:52:33;7.13;;;2.42;;
56469;SDS011;42374;51.464;-2.590;2022-07-22T03:54:59;5.13;;;2.30;;
56469;SDS011;42374;51.464;-2.590;2022-07-22T03:57:25;13.02;;;2.92;;
56469;SDS011;42374;51.464;-2.590;2022-07-22T03:59:53;7.55;;;3.30;;
56469;SDS011;42374;51.464;-2.590;2022-07-22T04:02:19;8.02;;;2.40;;
56469;SDS011;42374;51.464;-2.590;2022-07-22T04:04:45;7.10;;;2.78;;
56469;SDS011;42374;51.464;-2.590;2022-07-22T04:07:11;7.25;;;3.30;;
56469;SDS011;42374;51.464;-2.590;2022-07-22T04:09:37;8.82;;;2.53;;
56469;SDS011;42374;51.464;-2.590;2022-07-22T04:12:03;10.45;;;2.38;;
56469;SDS011;42374;51.464;-2.590;2022-07-22T04:14:31;10.05;;;2.60;;
56469;SDS011;42374;51.464;-2.590;2022-07-22T04:16:57;9.57;;;2.58;;
56469;SDS011;42374;51.464;-2.590;2022-07-22T04:19:23;14.05;;;2.72;;
56469;SDS011;42374;51.464;-2.590;2022-07-22T04:21:49;9.18;;;2.50;;
56469;SDS011;42374;51.464;-2.590;2022-07-22T04:24:15;8.23;;;2.00;;
56469;SDS011;42374;51.464;-2.590;2022-07-22T04:26:41;7.07;;;2.22;;
56469;SDS011;42374;51.464;-2.590;2022-07-22T04:29:07;4.20;;;1.80;;
56469;SDS011;42374;51.464;-2.590;2022-07-22T04:31:33;8.70;;;2.30;;
56469;SDS011;42374;51.464;-2.590;2022-07-22T04:33:59;12.32;;;2.67;;
56469;SDS011;42374;51.464;-2.590;2022-07-22T04:36:25;11.60;;;2.17;;
56469;SDS011;42374;51.464;-2.590;2022-07-22T04:38:51;7.22;;;1.95;;
56469;SDS011;42374;51.464;-2.590;2022-07-22T04:41:17;10.35;;;2.10;;
56469;SDS011;42374;51.464;-2.590;2022-07-22T04:43:43;10.50;;;2.85;;
56469;SDS011;42374;51.464;-2.590;2022-07-22T04:46:09;7.68;;;2.00;;
56469;SDS011;42374;51.464;-2.590;2022-07-22T04:48:36;7.13;;;2.00;;
56469;SDS011;42374;51.464;-2.590;2022-07-22T04:51:02;9.93;;;2.50;;
56469;SDS011;42374;51.464;-2.590;2022-07-22T04:53:28;10.50;;;2.42;;
56469;SDS011;42374;51.464;-2.590;2022-07-22T04:55:54;14.27;;;3.25;;
56469;SDS011;42374;51.464;-2.590;2022-07-22T04:58:20;6.22;;;2.00;;
56469;SDS011;42374;51.464;-2.590;2022-07-22T05:00:46;10.07;;;3.03;;
56469;SDS011;42374;51.464;-2.590;2022-07-22T05:03:13;12.30;;;3.00;;
56469;SDS011;42374;51.464;-2.590;2022-07-22T05:05:39;8.40;;;2.38;;
56469;SDS011;42374;51.464;-2.590;2022-07-22T05:08:05;9.48;;;2.70;;
56469;SDS011;42374;51.464;-2.590;2022-07-22T05:10:31;12.88;;;1.98;;
56469;SDS011;42374;51.464;-2.590;2022-07-22T05:12:57;11.18;;;2.28;;
56469;SDS011;42374;51.464;-2.590;2022-07-22T05:15:24;7.03;;;1.88;;
56469;SDS011;42374;51.464;-2.590;2022-07-22T05:17:50;7.00;;;2.20;;
56469;SDS011;42374;51.464;-2.590;2022-07-22T05:20:16;8.00;;;1.92;;
56469;SDS011;42374;51.464;-2.590;2022-07-22T05:22:43;8.13;;;2.00;;
56469;SDS011;42374;51.464;-2.590;2022-07-22T05:25:09;4.72;;;1.70;;
56469;SDS011;42374;51.464;-2.590;2022-07-22T05:27:35;11.30;;;1.98;;
56469;SDS011;42374;51.464;-2.590;2022-07-22T05:30:01;8.15;;;1.80;;
56469;SDS011;42374;51.464;-2.590;2022-07-22T05:32:27;8.32;;;1.83;;
56469;SDS011;42374;51.464;-2.590;2022-07-22T05:34:54;11.35;;;1.88;;
56469;SDS011;42374;51.464;-2.590;2022-07-22T05:37:20;5.35;;;1.77;;
56469;SDS011;42374;51.464;-2.590;2022-07-22T05:39:46;7.40;;;1.58;;
56469;SDS011;42374;51.464;-2.590;2022-07-22T05:42:12;9.00;;;2.17;;
56469;SDS011;42374;51.464;-2.590;2022-07-22T05:44:38;10.10;;;2.00;;
56469;SDS011;42374;51.464;-2.590;2022-07-22T05:47:04;12.25;;;1.90;;
56469;SDS011;42374;51.464;-2.590;2022-07-22T05:49:30;13.57;;;2.10;;
56469;SDS011;42374;51.464;-2.590;2022-07-22T05:51:56;12.75;;;2.00;;
56469;SDS011;42374;51.464;-2.590;2022-07-22T05:54:26;9.70;;;2.05;;
56469;SDS011;42374;51.464;-2.590;2022-07-22T05:56:52;10.38;;;1.92;;
56469;SDS011;42374;51.464;-2.590;2022-07-22T05:59:18;5.63;;;1.65;;
56469;SDS011;42374;51.464;-2.590;2022-07-22T06:01:44;9.15;;;1.98;;
56469;SDS011;42374;51.464;-2.590;2022-07-22T06:04:12;9.65;;;2.25;;
56469;SDS011;42374;51.464;-2.590;2022-07-22T06:06:38;10.57;;;1.67;;
56469;SDS011;42374;51.464;-2.590;2022-07-22T06:09:05;9.98;;;1.85;;
56469;SDS011;42374;51.464;-2.590;2022-07-22T06:11:31;8.35;;;1.65;;
56469;SDS011;42374;51.464;-2.590;2022-07-22T06:14:00;11.77;;;1.90;;
56469;SDS011;42374;51.464;-2.590;2022-07-22T06:16:26;7.80;;;1.70;;
56469;SDS011;42374;51.464;-2.590;2022-07-22T06:18:52;8.10;;;1.60;;
56469;SDS011;42374;51.464;-2.590;2022-07-22T06:21:18;14.05;;;2.03;;
56469;SDS011;42374;51.464;-2.590;2022-07-22T06:23:44;8.60;;;1.73;;
56469;SDS011;42374;51.464;-2.590;2022-07-22T06:26:10;7.25;;;1.52;;
56469;SDS011;42374;51.464;-2.590;2022-07-22T06:28:36;9.77;;;1.67;;
56469;SDS011;42374;51.464;-2.590;2022-07-22T06:31:02;8.57;;;1.58;;
56469;SDS011;42374;51.464;-2.590;2022-07-22T06:33:29;8.98;;;1.40;;
56469;SDS011;42374;51.464;-2.590;2022-07-22T06:35:58;5.70;;;1.80;;
56469;SDS011;42374;51.464;-2.590;2022-07-22T06:38:24;8.40;;;1.35;;
56469;SDS011;42374;51.464;-2.590;2022-07-22T06:40:50;6.13;;;1.50;;
56469;SDS011;42374;51.464;-2.590;2022-07-22T06:43:16;10.38;;;2.10;;
56469;SDS011;42374;51.464;-2.590;2022-07-22T06:45:42;13.25;;;1.50;;
56469;SDS011;42374;51.464;-2.590;2022-07-22T06:48:08;6.13;;;1.23;;
56469;SDS011;42374;51.464;-2.590;2022-07-22T06:50:34;9.95;;;1.35;;
56469;SDS011;42374;51.464;-2.590;2022-07-22T06:53:00;7.78;;;1.27;;
56469;SDS011;42374;51.464;-2.590;2022-07-22T06:55:26;5.88;;;1.42;;
56469;SDS011;42374;51.464;-2.590;2022-07-22T06:57:52;9.15;;;1.92;;
56469;SDS011;42374;51.464;-2.590;2022-07-22T07:00:18;7.22;;;1.45;;
56469;SDS011;42374;51.464;-2.590;2022-07-22T07:02:44;6.47;;;1.40;;
56469;SDS011;42374;51.464;-2.590;2022-07-22T07:05:10;9.98;;;1.48;;
56469;SDS011;42374;51.464;-2.590;2022-07-22T07:07:36;7.88;;;1.55;;
56469;SDS011;42374;51.464;-2.590;2022-07-22T07:10:03;7.05;;;1.08;;
56469;SDS011;42374;51.464;-2.590;2022-07-22T07:12:29;5.90;;;1.35;;
56469;SDS011;42374;51.464;-2.590;2022-07-22T07:14:55;9.40;;;1.50;;
56469;SDS011;42374;51.464;-2.590;2022-07-22T07:17:21;7.28;;;1.27;;
56469;SDS011;42374;51.464;-2.590;2022-07-22T07:19:49;8.73;;;1.00;;
56469;SDS011;42374;51.464;-2.590;2022-07-22T07:22:15;7.03;;;1.40;;
56469;SDS011;42374;51.464;-2.590;2022-07-22T07:24:42;4.75;;;1.27;;
56469;SDS011;42374;51.464;-2.590;2022-07-22T07:27:08;10.05;;;1.17;;
56469;SDS011;42374;51.464;-2.590;2022-07-22T07:29:34;8.00;;;1.08;;
56469;SDS011;42374;51.464;-2.590;2022-07-22T07:32:00;12.27;;;1.23;;
56469;SDS011;42374;51.464;-2.590;2022-07-22T07:34:26;8.45;;;1.50;;
56469;SDS011;42374;51.464;-2.590;2022-07-22T07:36:52;9.27;;;1.13;;
56469;SDS011;42374;51.464;-2.590;2022-07-22T07:39:18;10.10;;;1.17;;
56469;SDS011;42374;51.464;-2.590;2022-07-22T07:41:44;5.97;;;1.20;;
56469;SDS011;42374;51.464;-2.590;2022-07-22T07:44:10;6.45;;;1.27;;
56469;SDS011;42374;51.464;-2.590;2022-07-22T07:46:36;7.97;;;1.38;;
56469;SDS011;42374;51.464;-2.590;2022-07-22T07:49:02;5.97;;;1.20;;
56469;SDS011;42374;51.464;-2.590;2022-07-22T07:51:29;4.78;;;1.35;;
56469;SDS011;42374;51.464;-2.590;2022-07-22T07:53:55;6.15;;;1.10;;
56469;SDS011;42374;51.464;-2.590;2022-07-22T07:56:21;7.82;;;1.38;;
56469;SDS011;42374;51.464;-2.590;2022-07-22T07:58:47;7.35;;;1.45;;
56469;SDS011;42374;51.464;-2.590;2022-07-22T08:01:13;10.02;;;1.00;;
56469;SDS011;42374;51.464;-2.590;2022-07-22T08:03:39;7.85;;;1.40;;
56469;SDS011;42374;51.464;-2.590;2022-07-22T08:06:05;5.55;;;1.20;;
56469;SDS011;42374;51.464;-2.590;2022-07-22T08:08:31;7.90;;;1.25;;
56469;SDS011;42374;51.464;-2.590;2022-07-22T08:10:57;9.55;;;1.33;;
56469;SDS011;42374;51.464;-2.590;2022-07-22T08:13:23;7.82;;;1.27;;
56469;SDS011;42374;51.464;-2.590;2022-07-22T08:15:49;9.45;;;1.27;;
56469;SDS011;42374;51.464;-2.590;2022-07-22T08:18:15;8.68;;;1.27;;
56469;SDS011;42374;51.464;-2.590;2022-07-22T08:20:41;5.82;;;1.15;;
56469;SDS011;42374;51.464;-2.590;2022-07-22T08:23:08;9.23;;;1.13;;
56469;SDS011;42374;51.464;-2.590;2022-07-22T08:25:34;8.45;;;1.80;;
56469;SDS011;42374;51.464;-2.590;2022-07-22T08:28:00;5.15;;;1.02;;
56469;SDS011;42374;51.464;-2.590;2022-07-22T08:30:26;10.60;;;1.33;;
56469;SDS011;42374;51.464;-2.590;2022-07-22T08:32:53;8.05;;;1.40;;
56469;SDS011;42374;51.464;-2.590;2022-07-22T08:35:21;4.15;;;1.27;;
56469;SDS011;42374;51.464;-2.590;2022-07-22T08:37:48;7.80;;;1.23;;
56469;SDS011;42374;51.464;-2.590;2022-07-22T08:40:14;9.75;;;1.42;;
56469;SDS011;42374;51.464;-2.590;2022-07-22T08:42:42;10.40;;;1.52;;
56469;SDS011;42374;51.464;-2.590;2022-07-22T08:45:08;11.23;;;1.42;;
56469;SDS011;42374;51.464;-2.590;2022-07-22T08:47:35;9.93;;;1.60;;
56469;SDS011;42374;51.464;-2.590;2022-07-22T08:50:02;8.90;;;1.63;;
56469;SDS011;42374;51.464;-2.590;2022-07-22T08:52:28;9.10;;;1.77;;
56469;SDS011;42374;51.464;-2.590;2022-07-22T08:54:54;7.10;;;1.50;;
56469;SDS011;42374;51.464;-2.590;2022-07-22T08:57:20;6.85;;;1.83;;
56469;SDS011;42374;51.464;-2.590;2022-07-22T08:59:50;5.75;;;1.58;;
56469;SDS011;42374;51.464;-2.590;2022-07-22T09:02:17;16.85;;;1.70;;
56469;SDS011;42374;51.464;-2.590;2022-07-22T09:07:29;7.50;;;1.42;;
56469;SDS011;42374;51.464;-2.590;2022-07-22T09:09:56;9.38;;;1.58;;
56469;SDS011;42374;51.464;-2.590;2022-07-22T09:12:22;15.98;;;2.15;;
56469;SDS011;42374;51.464;-2.590;2022-07-22T09:14:50;5.22;;;1.52;;
56469;SDS011;42374;51.464;-2.590;2022-07-22T09:19:52;14.43;;;1.65;;
56469;SDS011;42374;51.464;-2.590;2022-07-22T09:22:30;7.80;;;1.30;;
56469;SDS011;42374;51.464;-2.590;2022-07-22T09:24:56;7.00;;;1.60;;
56469;SDS011;42374;51.464;-2.590;2022-07-22T09:27:26;9.40;;;1.98;;
56469;SDS011;42374;51.464;-2.590;2022-07-22T09:29:53;10.65;;;1.60;;
56469;SDS011;42374;51.464;-2.590;2022-07-22T09:32:21;16.27;;;4.57;;
56469;SDS011;42374;51.464;-2.590;2022-07-22T09:34:47;6.25;;;1.80;;
56469;SDS011;42374;51.464;-2.590;2022-07-22T09:37:13;10.25;;;2.00;;
56469;SDS011;42374;51.464;-2.590;2022-07-22T09:39:39;13.88;;;2.10;;
56469;SDS011;42374;51.464;-2.590;2022-07-22T09:42:06;12.68;;;1.80;;
56469;SDS011;42374;51.464;-2.590;2022-07-22T09:44:33;10.77;;;1.80;;
56469;SDS011;42374;51.464;-2.590;2022-07-22T09:46:59;8.23;;;1.73;;
56469;SDS011;42374;51.464;-2.590;2022-07-22T09:49:33;10.52;;;1.90;;
56469;SDS011;42374;51.464;-2.590;2022-07-22T09:52:00;4.57;;;1.45;;
56469;SDS011;42374;51.464;-2.590;2022-07-22T09:54:26;11.40;;;2.10;;
56469;SDS011;42374;51.464;-2.590;2022-07-22T09:56:52;12.35;;;1.60;;
56469;SDS011;42374;51.464;-2.590;2022-07-22T09:59:18;7.45;;;2.58;;
56469;SDS011;42374;51.464;-2.590;2022-07-22T10:01:44;5.45;;;1.70;;
56469;SDS011;42374;51.464;-2.590;2022-07-22T10:04:12;6.05;;;1.80;;
56469;SDS011;42374;51.464;-2.590;2022-07-22T10:06:38;7.90;;;2.00;;
56469;SDS011;42374;51.464;-2.590;2022-07-22T10:09:05;8.15;;;1.88;;
56469;SDS011;42374;51.464;-2.590;2022-07-22T10:11:32;7.60;;;1.70;;
56469;SDS011;42374;51.464;-2.590;2022-07-22T10:13:59;6.38;;;1.98;;
56469;SDS011;42374;51.464;-2.590;2022-07-22T10:16:25;11.25;;;2.10;;
56469;SDS011;42374;51.464;-2.590;2022-07-22T10:18:51;10.05;;;1.90;;
56469;SDS011;42374;51.464;-2.590;2022-07-22T10:21:18;7.65;;;2.13;;
56469;SDS011;42374;51.464;-2.590;2022-07-22T10:24:06;8.77;;;2.17;;
56469;SDS011;42374;51.464;-2.590;2022-07-22T10:29:31;6.93;;;2.35;;
56469;SDS011;42374;51.464;-2.590;2022-07-22T10:40:15;7.95;;;2.17;;
56469;SDS011;42374;51.464;-2.590;2022-07-22T10:45:26;13.45;;;2.42;;
56469;SDS011;42374;51.464;-2.590;2022-07-22T10:47:56;9.40;;;2.20;;
56469;SDS011;42374;51.464;-2.590;2022-07-22T10:53:03;11.32;;;2.42;;
56469;SDS011;42374;51.464;-2.590;2022-07-22T10:55:29;5.55;;;1.90;;
56469;SDS011;42374;51.464;-2.590;2022-07-22T10:57:55;8.77;;;2.13;;
56469;SDS011;42374;51.464;-2.590;2022-07-22T11:00:21;7.78;;;2.00;;
56469;SDS011;42374;51.464;-2.590;2022-07-22T11:02:47;5.07;;;1.83;;
56469;SDS011;42374;51.464;-2.590;2022-07-22T11:05:14;9.32;;;2.40;;
56469;SDS011;42374;51.464;-2.590;2022-07-22T11:07:50;17.23;;;5.90;;
56469;SDS011;42374;51.464;-2.590;2022-07-22T11:10:17;7.82;;;2.60;;
56469;SDS011;42374;51.464;-2.590;2022-07-22T11:12:44;5.15;;;2.10;;
56469;SDS011;42374;51.464;-2.590;2022-07-22T11:15:11;19.55;;;2.70;;
56469;SDS011;42374;51.464;-2.590;2022-07-22T11:17:37;8.90;;;2.00;;
56469;SDS011;42374;51.464;-2.590;2022-07-22T11:20:07;4.32;;;1.92;;
56469;SDS011;42374;51.464;-2.590;2022-07-22T11:22:34;11.50;;;2.50;;
56469;SDS011;42374;51.464;-2.590;2022-07-22T11:25:00;7.78;;;2.05;;
56469;SDS011;42374;51.464;-2.590;2022-07-22T11:27:27;6.32;;;2.30;;
56469;SDS011;42374;51.464;-2.590;2022-07-22T11:29:54;14.85;;;4.07;;
56469;SDS011;42374;51.464;-2.590;2022-07-22T11:32:21;8.98;;;2.15;;
56469;SDS011;42374;51.464;-2.590;2022-07-22T11:34:50;7.10;;;2.80;;
56469;SDS011;42374;51.464;-2.590;2022-07-22T11:37:17;12.30;;;2.63;;
56469;SDS011;42374;51.464;-2.590;2022-07-22T11:39:44;8.80;;;3.25;;
56469;SDS011;42374;51.464;-2.590;2022-07-22T11:42:10;5.80;;;3.03;;
56469;SDS011;42374;51.464;-2.590;2022-07-22T11:44:37;7.63;;;3.28;;
56469;SDS011;42374;51.464;-2.590;2022-07-22T11:47:05;8.75;;;3.25;;
56469;SDS011;42374;51.464;-2.590;2022-07-22T11:49:32;10.00;;;3.17;;
56469;SDS011;42374;51.464;-2.590;2022-07-22T11:51:59;11.45;;;3.88;;
56469;SDS011;42374;51.464;-2.590;2022-07-22T11:54:26;18.10;;;3.95;;
56469;SDS011;42374;51.464;-2.590;2022-07-22T11:56:53;13.80;;;4.60;;
56469;SDS011;42374;51.464;-2.590;2022-07-22T11:59:19;13.65;;;4.95;;
56469;SDS011;42374;51.464;-2.590;2022-07-22T12:01:45;14.68;;;7.13;;
56469;SDS011;42374;51.464;-2.590;2022-07-22T12:04:19;17.35;;;5.70;;
56469;SDS011;42374;51.464;-2.590;2022-07-22T12:06:46;16.70;;;5.95;;
56469;SDS011;42374;51.464;-2.590;2022-07-22T12:09:14;13.40;;;5.70;;
56469;SDS011;42374;51.464;-2.590;2022-07-22T12:11:42;18.90;;;6.18;;
56469;SDS011;42374;51.464;-2.590;2022-07-22T12:14:15;15.75;;;6.30;;
56469;SDS011;42374;51.464;-2.590;2022-07-22T12:16:42;10.57;;;5.60;;
56469;SDS011;42374;51.464;-2.590;2022-07-22T12:19:09;13.90;;;6.20;;
56469;SDS011;42374;51.464;-2.590;2022-07-22T12:21:58;17.85;;;6.38;;
56469;SDS011;42374;51.464;-2.590;2022-07-22T12:24:33;13.60;;;6.85;;
56469;SDS011;42374;51.464;-2.590;2022-07-22T12:27:03;16.33;;;6.25;;
56469;SDS011;42374;51.464;-2.590;2022-07-22T12:32:03;12.45;;;6.90;;
56469;SDS011;42374;51.464;-2.590;2022-07-22T12:34:32;15.00;;;6.88;;
56469;SDS011;42374;51.464;-2.590;2022-07-22T12:36:59;17.38;;;7.60;;
56469;SDS011;42374;51.464;-2.590;2022-07-22T12:39:27;16.13;;;6.90;;
56469;SDS011;42374;51.464;-2.590;2022-07-22T12:41:54;20.67;;;7.15;;
56469;SDS011;42374;51.464;-2.590;2022-07-22T12:44:21;7.97;;;6.50;;
56469;SDS011;42374;51.464;-2.590;2022-07-22T12:46:49;14.57;;;7.25;;
56469;SDS011;42374;51.464;-2.590;2022-07-22T12:49:16;11.40;;;6.20;;
56469;SDS011;42374;51.464;-2.590;2022-07-22T12:52:03;11.52;;;7.25;;
56469;SDS011;42374;51.464;-2.590;2022-07-22T12:54:29;11.88;;;6.20;;
56469;SDS011;42374;51.464;-2.590;2022-07-22T12:56:55;12.95;;;6.15;;
56469;SDS011;42374;51.464;-2.590;2022-07-22T12:59:21;10.95;;;5.03;;
56469;SDS011;42374;51.464;-2.590;2022-07-22T13:01:47;11.77;;;6.97;;
56469;SDS011;42374;51.464;-2.590;2022-07-22T13:04:14;13.60;;;6.95;;
56469;SDS011;42374;51.464;-2.590;2022-07-22T13:06:40;14.75;;;7.28;;
56469;SDS011;42374;51.464;-2.590;2022-07-22T13:09:06;16.17;;;7.40;;
56469;SDS011;42374;51.464;-2.590;2022-07-22T13:11:32;15.95;;;7.13;;
56469;SDS011;42374;51.464;-2.590;2022-07-22T13:14:04;12.85;;;7.85;;
56469;SDS011;42374;51.464;-2.590;2022-07-22T13:16:30;11.70;;;7.18;;
56469;SDS011;42374;51.464;-2.590;2022-07-22T13:18:56;17.10;;;8.48;;
56469;SDS011;42374;51.464;-2.590;2022-07-22T13:21:22;15.93;;;9.52;;
56469;SDS011;42374;51.464;-2.590;2022-07-22T13:23:48;16.73;;;8.00;;
56469;SDS011;42374;51.464;-2.590;2022-07-22T13:26:14;14.13;;;6.80;;
56469;SDS011;42374;51.464;-2.590;2022-07-22T13:28:40;12.27;;;7.75;;
56469;SDS011;42374;51.464;-2.590;2022-07-22T13:31:07;8.57;;;6.78;;
56469;SDS011;42374;51.464;-2.590;2022-07-22T13:33:33;15.18;;;7.60;;
56469;SDS011;42374;51.464;-2.590;2022-07-22T13:35:59;10.95;;;6.82;;
56469;SDS011;42374;51.464;-2.590;2022-07-22T13:38:25;14.50;;;8.80;;
56469;SDS011;42374;51.464;-2.590;2022-07-22T13:40:51;16.95;;;9.27;;
56469;SDS011;42374;51.464;-2.590;2022-07-22T13:43:19;21.33;;;10.77;;
56469;SDS011;42374;51.464;-2.590;2022-07-22T13:48:49;13.30;;;7.57;;
56469;SDS011;42374;51.464;-2.590;2022-07-22T13:51:22;9.80;;;5.82;;
56469;SDS011;42374;51.464;-2.590;2022-07-22T13:53:48;10.43;;;5.55;;
56469;SDS011;42374;51.464;-2.590;2022-07-22T13:56:17;10.20;;;5.57;;
56469;SDS011;42374;51.464;-2.590;2022-07-22T13:58:44;15.43;;;7.53;;
56469;SDS011;42374;51.464;-2.590;2022-07-22T14:01:16;10.82;;;6.85;;
56469;SDS011;42374;51.464;-2.590;2022-07-22T14:03:45;10.60;;;5.28;;
56469;SDS011;42374;51.464;-2.590;2022-07-22T14:06:11;6.95;;;4.88;;
56469;SDS011;42374;51.464;-2.590;2022-07-22T14:08:38;6.50;;;4.18;;
56469;SDS011;42374;51.464;-2.590;2022-07-22T14:11:04;6.03;;;3.92;;
56469;SDS011;42374;51.464;-2.590;2022-07-22T14:13:30;6.68;;;3.45;;
56469;SDS011;42374;51.464;-2.590;2022-07-22T14:15:56;7.63;;;4.75;;
56469;SDS011;42374;51.464;-2.590;2022-07-22T14:18:42;5.53;;;4.35;;
56469;SDS011;42374;51.464;-2.590;2022-07-22T14:21:08;6.10;;;4.60;;
56469;SDS011;42374;51.464;-2.590;2022-07-22T14:23:34;8.05;;;3.90;;
56469;SDS011;42374;51.464;-2.590;2022-07-22T14:26:00;8.32;;;5.22;;
56469;SDS011;42374;51.464;-2.590;2022-07-22T14:28:29;5.95;;;3.83;;
56469;SDS011;42374;51.464;-2.590;2022-07-22T14:30:56;9.73;;;5.07;;
56469;SDS011;42374;51.464;-2.590;2022-07-22T14:33:22;7.95;;;5.13;;
56469;SDS011;42374;51.464;-2.590;2022-07-22T14:35:50;11.45;;;6.28;;
56469;SDS011;42374;51.464;-2.590;2022-07-22T14:38:16;10.43;;;4.95;;
56469;SDS011;42374;51.464;-2.590;2022-07-22T14:40:44;6.28;;;4.55;;
56469;SDS011;42374;51.464;-2.590;2022-07-22T14:43:10;7.15;;;3.92;;
56469;SDS011;42374;51.464;-2.590;2022-07-22T14:45:36;8.45;;;3.80;;
56469;SDS011;42374;51.464;-2.590;2022-07-22T14:48:02;7.03;;;5.03;;
56469;SDS011;42374;51.464;-2.590;2022-07-22T14:50:28;9.82;;;4.53;;
56469;SDS011;42374;51.464;-2.590;2022-07-22T14:52:54;7.95;;;4.88;;
56469;SDS011;42374;51.464;-2.590;2022-07-22T14:55:21;7.70;;;4.82;;